SKW4234 KGJT-KSGU
Flight info
| Callsign | SKW4234 |
|---|---|
| Flight time | N/A |
| Altitude | 34000 |
| Route | PIETZ |
| Aircraft | CRJ7/M-SDFGIRWY/S |
Departure
| Time | 2026-04-26 22:24 |
|---|---|
| Airport | Grand Junction Regional Airport (KGJT) |
Arrival
| Time | N/A |
|---|---|
| Airport | St George Regional Airport (KSGU) |
| Time | Latitude | Longitude | Altitude | Speed | Heading |
|---|---|---|---|---|---|
| 2026-04-26 22:08 | 39.12352 | -108.52934 | 4846 ft | 0 kts | 215° |
| 2026-04-26 22:17 | 39.12354 | -108.52932 | 4846 ft | 2 kts | 215° |
| 2026-04-26 22:17 | 39.12367 | -108.52920 | 4846 ft | 2 kts | 215° |
| 2026-04-26 22:18 | 39.12381 | -108.52908 | 4847 ft | 2 kts | 215° |
| 2026-04-26 22:18 | 39.12394 | -108.52896 | 4846 ft | 2 kts | 214° |
| 2026-04-26 22:18 | 39.12409 | -108.52889 | 4847 ft | 2 kts | 167° |
| 2026-04-26 22:18 | 39.12423 | -108.52900 | 4845 ft | 2 kts | 133° |
| 2026-04-26 22:19 | 39.12427 | -108.52906 | 4845 ft | 0 kts | 128° |
| 2026-04-26 22:20 | 39.12426 | -108.52904 | 4845 ft | 1 kts | 128° |
| 2026-04-26 22:20 | 39.12401 | -108.52859 | 4846 ft | 8 kts | 112° |
| 2026-04-26 22:20 | 39.12431 | -108.52783 | 4846 ft | 13 kts | 63° |
| 2026-04-26 22:21 | 39.12397 | -108.52676 | 4847 ft | 15 kts | 126° |
| 2026-04-26 22:21 | 39.12333 | -108.52560 | 4849 ft | 17 kts | 125° |
| 2026-04-26 22:21 | 39.12260 | -108.52425 | 4850 ft | 20 kts | 125° |
| 2026-04-26 22:21 | 39.12162 | -108.52246 | 4855 ft | 28 kts | 125° |
| 2026-04-26 22:22 | 39.12086 | -108.52109 | 4856 ft | 29 kts | 125° |
| 2026-04-26 22:22 | 39.11973 | -108.51902 | 4857 ft | 27 kts | 125° |
| 2026-04-26 22:22 | 39.11870 | -108.51713 | 4860 ft | 24 kts | 124° |
| 2026-04-26 22:22 | 39.11796 | -108.51568 | 4863 ft | 11 kts | 96° |
| 2026-04-26 22:23 | 39.11829 | -108.51492 | 4863 ft | 10 kts | 52° |
| 2026-04-26 22:23 | 39.11873 | -108.51486 | 4863 ft | 7 kts | 315° |
| 2026-04-26 22:23 | 39.11947 | -108.51616 | 4860 ft | 43 kts | 306° |
| 2026-04-26 22:23 | 39.12260 | -108.52182 | 4856 ft | 109 kts | 305° |
| 2026-04-26 22:24 | 39.12807 | -108.53142 | 4893 ft | 149 kts | 292° |
| 2026-04-26 22:24 | 39.13518 | -108.54136 | 5469 ft | 152 kts | 305° |
| 2026-04-26 22:24 | 39.14255 | -108.55183 | 5941 ft | 158 kts | 309° |
| 2026-04-26 22:24 | 39.14952 | -108.56298 | 6406 ft | 164 kts | 304° |
| 2026-04-26 22:25 | 39.15746 | -108.57541 | 6473 ft | 193 kts | 300° |
| 2026-04-26 22:25 | 39.16051 | -108.59238 | 6478 ft | 216 kts | 259° |
| 2026-04-26 22:25 | 39.15676 | -108.61227 | 6979 ft | 239 kts | 252° |
| 2026-04-26 22:25 | 39.15155 | -108.63332 | 7715 ft | 254 kts | 250° |
| 2026-04-26 22:26 | 39.14540 | -108.65485 | 8751 ft | 259 kts | 247° |
| 2026-04-26 22:26 | 39.13864 | -108.67646 | 9771 ft | 260 kts | 246° |
| 2026-04-26 22:26 | 39.13139 | -108.69847 | 10228 ft | 275 kts | 246° |
| 2026-04-26 22:26 | 39.12361 | -108.72185 | 10660 ft | 290 kts | 246° |
| 2026-04-26 22:27 | 39.11564 | -108.74586 | 11392 ft | 294 kts | 245° |
| 2026-04-26 22:27 | 39.10773 | -108.77020 | 12067 ft | 296 kts | 246° |
| 2026-04-26 22:27 | 39.09980 | -108.79490 | 12852 ft | 297 kts | 245° |
| 2026-04-26 22:27 | 39.09179 | -108.81960 | 13574 ft | 297 kts | 247° |
| 2026-04-26 22:28 | 39.08407 | -108.84458 | 14186 ft | 301 kts | 247° |
| 2026-04-26 22:28 | 39.07630 | -108.86992 | 14756 ft | 307 kts | 247° |
| 2026-04-26 22:28 | 39.06831 | -108.89540 | 15345 ft | 311 kts | 246° |
| 2026-04-26 22:28 | 39.06013 | -108.92110 | 15972 ft | 313 kts | 246° |
| 2026-04-26 22:29 | 39.05196 | -108.94655 | 16592 ft | 315 kts | 246° |
| 2026-04-26 22:29 | 39.04355 | -108.97272 | 17120 ft | 319 kts | 246° |
| 2026-04-26 22:29 | 39.03505 | -108.99908 | 17770 ft | 320 kts | 246° |
| 2026-04-26 22:29 | 39.02654 | -109.02567 | 18304 ft | 322 kts | 246° |
| 2026-04-26 22:30 | 39.01788 | -109.05244 | 18764 ft | 327 kts | 246° |
| 2026-04-26 22:30 | 39.00911 | -109.07955 | 19427 ft | 328 kts | 246° |
| 2026-04-26 22:30 | 39.00031 | -109.10686 | 20052 ft | 332 kts | 245° |
| 2026-04-26 22:30 | 38.99137 | -109.13447 | 20662 ft | 337 kts | 245° |
| 2026-04-26 22:31 | 38.98230 | -109.16247 | 21262 ft | 340 kts | 245° |
| 2026-04-26 22:31 | 38.97319 | -109.19067 | 21864 ft | 343 kts | 245° |
| 2026-04-26 22:31 | 38.96390 | -109.21918 | 22341 ft | 348 kts | 245° |
| 2026-04-26 22:31 | 38.95454 | -109.24803 | 22902 ft | 351 kts | 245° |
| 2026-04-26 22:32 | 38.94513 | -109.27706 | 23421 ft | 353 kts | 245° |
| 2026-04-26 22:32 | 38.93554 | -109.30630 | 23778 ft | 358 kts | 245° |
| 2026-04-26 22:32 | 38.92590 | -109.33579 | 24272 ft | 359 kts | 245° |
| 2026-04-26 22:32 | 38.91629 | -109.36534 | 24715 ft | 361 kts | 245° |
| 2026-04-26 22:33 | 38.90658 | -109.39521 | 25107 ft | 364 kts | 245° |
| 2026-04-26 22:33 | 38.88701 | -109.45516 | 25995 ft | 366 kts | 245° |
| 2026-04-26 22:33 | 38.87699 | -109.48546 | 26362 ft | 369 kts | 246° |
| 2026-04-26 22:34 | 38.86688 | -109.51577 | 26810 ft | 370 kts | 246° |
| 2026-04-26 22:34 | 38.85666 | -109.54633 | 27112 ft | 375 kts | 246° |
| 2026-04-26 22:34 | 38.84647 | -109.57710 | 27499 ft | 376 kts | 246° |
| 2026-04-26 22:34 | 38.83632 | -109.60807 | 27860 ft | 378 kts | 246° |
| 2026-04-26 22:35 | 38.82611 | -109.63925 | 28189 ft | 380 kts | 247° |
| 2026-04-26 22:35 | 38.81584 | -109.67054 | 28586 ft | 381 kts | 247° |